METAR v bližini

 

LJMB - Maribor Edvarda Rusjana, Slovenia
Oddaljenost od postaje: SV 30,9km
Podatki zajeti: 21/01/2019 04:30
Oblačno
Oblačno
 Veter iz smeri calm
Veter: Mirno
Temperatura: -1°C
Rosišče: -3°C
Vlažnost: 86%
Tlak: 1020 hPa
Oblačnost: Oblačno
Vidljivost: 7 km
Podrobnosti o oblakih: Oblačno 792 m
2019/01/21 03:30 LJMB 210330Z AUTO 00000KT 7000 OVC026/// M01/M03 Q1020
LJLJ - Ljubljana Brnik, Slovenia
Oddaljenost od postaje: S 103km
Podatki zajeti: 21/01/2019 04:30
Oblačno
Oblačno
 Veter iz smeri spremenljiv
Veter: spremenljiv 4 km/h
Temperatura: -2°C
Rosišče: -2°C
Vlažnost: 100%
Tlak: 1019 hPa
Oblačnost: Oblačno
Vidljivost: 8 km
Podrobnosti o oblakih: Oblačno 610 m
2019/01/21 03:30 LJLJ 210330Z VRB02KT 8000 OVC020 M02/M02 Q1019 NOSIG
 
LJPZ - Portorož, Slovenia
Oddaljenost od postaje: SSZ 224km
Podatki zajeti: 21/01/2019 04:30
Delno oblačno
Delno oblačno
 Veter iz smeri VJV
Veter: VJV 6 km/h
Temperatura: 2°C
Rosišče: -1°C
Vlažnost: 81%
Tlak: 1016 hPa
Oblačnost: Delno oblačno
Vidljivost: 10 km
2019/01/21 03:30 LJPZ 210330Z AUTO 12003KT 9999 NSC 02/M01 Q1016
LJCE - Cerklje, Slovenia
Oddaljenost od postaje: VSV 83,9km
Podatki zajeti: 21/01/2019 04:30
Oblačno
Oblačno
 Veter iz smeri spremenljiv
Veter: spremenljiv 0 km/h
Temperatura: -2°C
Rosišče: -3°C
Vlažnost: 93%
Tlak: 1020 hPa
Oblačnost: Oblačno
Vidljivost: 10 km
Podrobnosti o oblakih: Oblačno 853 m
2019/01/21 03:30 LJCE 210330Z AUTO /////KT 9999 OVC028/// M02/M03 Q1020
 
LOWG - Graz, Austria
Oddaljenost od postaje: SSZ 99,6km
Podatki zajeti: 21/01/2019 04:20
Pretežno oblačno
Pretežno oblačno
 Veter iz smeri spremenljiv
Veter: spremenljiv 2 km/h
Temperatura: -2°C
Rosišče: -4°C
Vlažnost: 86%
Tlak: 1019 hPa
Oblačnost: Pretežno oblačno
Vidljivost: 10 km
Podrobnosti o oblakih: Rahlo oblačno 305 m
Pretežno oblačno 335 m
2019/01/21 03:20 LOWG 210320Z AUTO VRB01KT 9999 FEW010 BKN011 M02/M04 Q1019
LOWK - Klagenfurt, Austria
Oddaljenost od postaje: SZ 121km
Podatki zajeti: 21/01/2019 04:20
Pretežno oblačno
Pretežno oblačno
 Veter iz smeri spremenljiv
Veter: spremenljiv 2 km/h
Temperatura: -4°C
Rosišče: -6°C
Vlažnost: 86%
Tlak: 1019 hPa
Oblačnost: Pretežno oblačno
Vidljivost: 10 km
Podrobnosti o oblakih: Rahlo oblačno 427 m
Pretežno oblačno 549 m
2019/01/21 03:20 LOWK 210320Z AUTO VRB01KT 9999 FEW014 BKN018 M04/M06 Q1019
 
LDRI - Rijeka, Croatia
Oddaljenost od postaje: SZ 243km
Podatki zajeti: 21/01/2019 04:30
Jasno
Jasno
 Veter iz smeri SV
Veter: SV 19 km/h
Temperatura: 4°C
Občutek mraza zaradi vetra: 0°C
Rosišče: -4°C
Vlažnost: 56%
Tlak: 1016 hPa
Stanje: Jasno
Vidljivost: večja od 10 km
2019/01/21 03:30 LDRI 210330Z 05010KT CAVOK 04/M04 Q1016
LIPQ - Ronchi, Italy
Oddaljenost od postaje: VJV 224km
Podatki zajeti: 21/01/2019 04:20
Oblačno
Oblačno
 Veter iz smeri SSV
Veter: SSV 7 km/h
Temperatura: 4°C
Občutek mraza zaradi vetra: 2°C
Rosišče: -4°C
Vlažnost: 56%
Tlak: 1016 hPa
Oblačnost: Oblačno
Vidljivost: 10 km
Podrobnosti o oblakih: Oblačno 2774 m
2019/01/21 03:20 LIPQ 210320Z AUTO 03004KT 360V060 9999 OVC091/// 04/M04 Q1016
 
LDZA - Zagreb, Croatia
Oddaljenost od postaje: JJV 143km
Podatki zajeti: 21/01/2019 04:30
Oblačno
Oblačno
 Veter iz smeri calm
Veter: Mirno
Temperatura: 0°C
Rosišče: -2°C
Vlažnost: 87%
Tlak: 1020 hPa
Oblačnost: Oblačno
Vidljivost: 10 km
Podrobnosti o oblakih: Oblačno 853 m
2019/01/21 03:30 LDZA 210330Z 00000KT 9999 OVC028 M00/M02 Q1020 NOSIG
LIVT - Trieste, Italy
Oddaljenost od postaje: ZSZ 250km
Podatki zajeti: 20/01/2019 18:55
Ni posodobljen
Jasno
Jasno
 Veter iz smeri SV
Veter: SV 7 km/h
Temperatura: 4°C
Občutek mraza zaradi vetra: 2°C
Rosišče: 0°C
Vlažnost: 75%
Tlak: 1015 hPa
Stanje: Jasno
Vidljivost: večja od 10 km
2019/01/20 17:55 LIVT 201755Z 05004KT CAVOK 04/00 Q1015 RMK SKC QUK / QUL / VIS MAR 20 KM VIS MIN 9999
 
LIPA - Aviano, Italy
Oddaljenost od postaje: S 310km
Podatki zajeti: 19/01/2019 21:55
Ni posodobljen
Delno oblačno
Delno oblačno
 Veter iz smeri S
Veter: S 7 km/h
Temperatura: 0°C
Občutek mraza zaradi vetra: -3°C
Rosišče: -3°C
Vlažnost: 80%
Tlak: 1015 hPa
Oblačnost: Delno oblačno
Vidljivost: 10 km
Podrobnosti o oblakih: Delno oblačno 3048 m
2019/01/19 20:55 LIPA 192055Z 01004KT 9999 SCT100 00/M03 Q1015 RMK SCT VIS MIN 9999 WIND THR05 04003KT WIND THR23 10003KT A2999 BLU
LDPL - Pula, Croatia
Oddaljenost od postaje: SSV 304km
Podatki zajeti: 21/01/2019 04:30
Jasno
Jasno
 Veter iz smeri VSV
Veter: VSV 9 km/h
Temperatura: 4°C
Občutek mraza zaradi vetra: 2°C
Rosišče: -1°C
Vlažnost: 70%
Tlak: 1015 hPa
Stanje: Jasno
Vidljivost: večja od 10 km
2019/01/21 03:30 LDPL 210330Z 06005KT 030V090 CAVOK 04/M01 Q1015 BECMG 06012KT